sensor_id;sensor_type;location;lat;lon;timestamp;pressure;altitude;pressure_sealevel;temperature;humidity
22241;BME280;11289;52.524;13.694;2022-12-31T00:00:04;100036.25;;;7.23;94.12
22241;BME280;11289;52.524;13.694;2022-12-31T00:02:29;100067.47;;;7.41;93.76
22241;BME280;11289;52.524;13.694;2022-12-31T00:04:55;100061.28;;;7.36;93.74
22241;BME280;11289;52.524;13.694;2022-12-31T00:07:20;100074.75;;;7.46;93.57
22241;BME280;11289;52.524;13.694;2022-12-31T00:09:45;100073.78;;;7.50;93.98
22241;BME280;11289;52.524;13.694;2022-12-31T00:12:11;100051.03;;;7.36;93.48
22241;BME280;11289;52.524;13.694;2022-12-31T00:14:36;100086.66;;;7.64;93.24
22241;BME280;11289;52.524;13.694;2022-12-31T00:17:02;100071.22;;;7.54;93.37
22241;BME280;11289;52.524;13.694;2022-12-31T00:19:27;100092.81;;;7.70;93.44
22241;BME280;11289;52.524;13.694;2022-12-31T00:21:52;100092.03;;;7.69;93.00
22241;BME280;11289;52.524;13.694;2022-12-31T00:24:18;100095.59;;;7.70;92.82
22241;BME280;11289;52.524;13.694;2022-12-31T00:26:43;100110.38;;;7.82;92.71
22241;BME280;11289;52.524;13.694;2022-12-31T00:29:09;100103.72;;;7.75;92.47
22241;BME280;11289;52.524;13.694;2022-12-31T00:31:36;100120.66;;;7.91;92.65
22241;BME280;11289;52.524;13.694;2022-12-31T00:34:03;100127.81;;;7.92;92.17
22241;BME280;11289;52.524;13.694;2022-12-31T00:36:30;100107.63;;;7.82;91.71
22241;BME280;11289;52.524;13.694;2022-12-31T00:38:57;100108.13;;;7.84;91.72
22241;BME280;11289;52.524;13.694;2022-12-31T00:41:24;100112.03;;;7.83;91.45
22241;BME280;11289;52.524;13.694;2022-12-31T00:43:50;100131.38;;;8.01;91.29
22241;BME280;11289;52.524;13.694;2022-12-31T00:46:16;100116.44;;;7.93;91.40
22241;BME280;11289;52.524;13.694;2022-12-31T00:48:42;100117.41;;;7.89;91.13
22241;BME280;11289;52.524;13.694;2022-12-31T00:51:10;100094.13;;;7.81;90.99
22241;BME280;11289;52.524;13.694;2022-12-31T00:53:37;100125.19;;;8.04;90.87
22241;BME280;11289;52.524;13.694;2022-12-31T00:56:05;100103.91;;;7.87;90.47
22241;BME280;11289;52.524;13.694;2022-12-31T00:58:31;100135.44;;;7.95;90.30
22241;BME280;11289;52.524;13.694;2022-12-31T01:00:57;100114.00;;;7.83;90.30
22241;BME280;11289;52.524;13.694;2022-12-31T01:03:23;100126.50;;;7.89;90.17
22241;BME280;11289;52.524;13.694;2022-12-31T01:05:57;100123.72;;;7.80;90.10
22241;BME280;11289;52.524;13.694;2022-12-31T01:08:29;100138.03;;;7.82;89.98
22241;BME280;11289;52.524;13.694;2022-12-31T01:10:55;100120.94;;;7.63;90.12
22241;BME280;11289;52.524;13.694;2022-12-31T01:13:52;100136.75;;;7.71;90.27
22241;BME280;11289;52.524;13.694;2022-12-31T01:16:20;100141.09;;;7.72;90.36
22241;BME280;11289;52.524;13.694;2022-12-31T01:18:47;100133.63;;;7.64;90.55
22241;BME280;11289;52.524;13.694;2022-12-31T01:21:13;100172.19;;;7.87;90.36
22241;BME280;11289;52.524;13.694;2022-12-31T01:23:38;100159.31;;;7.73;90.50
22241;BME280;11289;52.524;13.694;2022-12-31T01:26:06;100163.72;;;7.74;90.76
22241;BME280;11289;52.524;13.694;2022-12-31T01:28:35;100153.44;;;7.66;90.68
22241;BME280;11289;52.524;13.694;2022-12-31T01:31:14;100126.78;;;7.53;90.77
22241;BME280;11289;52.524;13.694;2022-12-31T01:33:46;100129.53;;;7.53;90.90
22241;BME280;11289;52.524;13.694;2022-12-31T01:36:21;100155.09;;;7.67;90.95
22241;BME280;11289;52.524;13.694;2022-12-31T01:38:47;100141.06;;;7.55;90.72
22241;BME280;11289;52.524;13.694;2022-12-31T01:41:14;100167.94;;;7.80;90.96
22241;BME280;11289;52.524;13.694;2022-12-31T01:43:55;100175.59;;;7.92;90.82
22241;BME280;11289;52.524;13.694;2022-12-31T01:46:47;100188.78;;;7.95;90.75
22241;BME280;11289;52.524;13.694;2022-12-31T01:52:12;100156.72;;;7.77;90.81
22241;BME280;11289;52.524;13.694;2022-12-31T01:54:54;100174.94;;;7.87;90.52
22241;BME280;11289;52.524;13.694;2022-12-31T01:57:26;100174.28;;;7.90;90.82
22241;BME280;11289;52.524;13.694;2022-12-31T02:00:02;100146.63;;;7.72;90.77
22241;BME280;11289;52.524;13.694;2022-12-31T02:02:28;100170.72;;;7.89;90.83
22241;BME280;11289;52.524;13.694;2022-12-31T02:05:01;100177.56;;;7.92;90.50
22241;BME280;11289;52.524;13.694;2022-12-31T02:07:50;100144.19;;;7.71;90.69
22241;BME280;11289;52.524;13.694;2022-12-31T02:10:16;100133.13;;;7.71;90.44
22241;BME280;11289;52.524;13.694;2022-12-31T02:12:42;100175.59;;;7.92;90.50
22241;BME280;11289;52.524;13.694;2022-12-31T02:15:16;100150.72;;;7.75;90.52
22241;BME280;11289;52.524;13.694;2022-12-31T02:32:07;100212.88;;;8.12;90.88
22241;BME280;11289;52.524;13.694;2022-12-31T02:34:41;100184.22;;;7.99;91.05
22241;BME280;11289;52.524;13.694;2022-12-31T02:37:11;100175.59;;;8.01;90.87
22241;BME280;11289;52.524;13.694;2022-12-31T02:39:39;100199.38;;;8.19;91.13
22241;BME280;11289;52.524;13.694;2022-12-31T02:42:06;100187.19;;;8.12;90.67
22241;BME280;11289;52.524;13.694;2022-12-31T02:44:36;100204.25;;;8.31;91.29
22241;BME280;11289;52.524;13.694;2022-12-31T02:55:16;100189.09;;;8.37;90.73
22241;BME280;11289;52.524;13.694;2022-12-31T03:00:17;100174.97;;;8.22;90.92
22241;BME280;11289;52.524;13.694;2022-12-31T03:03:02;100173.69;;;8.28;90.89
22241;BME280;11289;52.524;13.694;2022-12-31T03:05:32;100173.50;;;8.33;91.42
22241;BME280;11289;52.524;13.694;2022-12-31T03:07:59;100175.59;;;8.36;91.31
22241;BME280;11289;52.524;13.694;2022-12-31T03:10:24;100167.16;;;8.24;91.53
22241;BME280;11289;52.524;13.694;2022-12-31T03:12:50;100140.66;;;8.14;91.34
22241;BME280;11289;52.524;13.694;2022-12-31T03:17:54;100186.22;;;8.51;91.16
22241;BME280;11289;52.524;13.694;2022-12-31T03:20:22;100173.69;;;8.45;91.33
22241;BME280;11289;52.524;13.694;2022-12-31T03:23:09;100170.09;;;8.45;91.28
22241;BME280;11289;52.524;13.694;2022-12-31T03:25:35;100176.28;;;8.50;91.15
22241;BME280;11289;52.524;13.694;2022-12-31T03:28:14;100167.16;;;8.41;91.52
22241;BME280;11289;52.524;13.694;2022-12-31T03:30:43;100157.22;;;8.40;91.62
22241;BME280;11289;52.524;13.694;2022-12-31T03:33:09;100182.31;;;8.61;91.86
22241;BME280;11289;52.524;13.694;2022-12-31T03:35:36;100149.94;;;8.44;92.12
22241;BME280;11289;52.524;13.694;2022-12-31T03:38:03;100170.25;;;8.57;91.87
22241;BME280;11289;52.524;13.694;2022-12-31T03:40:30;100184.72;;;8.71;91.79
22241;BME280;11289;52.524;13.694;2022-12-31T03:42:56;100167.31;;;8.62;92.05
22241;BME280;11289;52.524;13.694;2022-12-31T03:45:22;100177.69;;;8.74;91.91
22241;BME280;11289;52.524;13.694;2022-12-31T03:47:48;100161.59;;;8.67;91.81
22241;BME280;11289;52.524;13.694;2022-12-31T03:50:16;100174.75;;;8.79;91.90
22241;BME280;11289;52.524;13.694;2022-12-31T03:52:42;100177.84;;;8.86;91.79
22241;BME280;11289;52.524;13.694;2022-12-31T03:55:08;100144.78;;;8.81;91.62
22241;BME280;11289;52.524;13.694;2022-12-31T03:57:34;100143.00;;;8.85;91.49
22241;BME280;11289;52.524;13.694;2022-12-31T04:00:00;100120.88;;;8.77;91.13
22241;BME280;11289;52.524;13.694;2022-12-31T04:02:26;100142.50;;;8.92;91.11
22241;BME280;11289;52.524;13.694;2022-12-31T04:04:51;100136.28;;;8.95;91.11
22241;BME280;11289;52.524;13.694;2022-12-31T04:07:17;100136.28;;;8.95;91.14
22241;BME280;11289;52.524;13.694;2022-12-31T04:09:42;100126.84;;;8.96;91.17
22241;BME280;11289;52.524;13.694;2022-12-31T04:12:08;100126.97;;;9.00;91.06
22241;BME280;11289;52.524;13.694;2022-12-31T04:14:33;100131.84;;;9.03;91.34
22241;BME280;11289;52.524;13.694;2022-12-31T04:16:58;100139.75;;;9.22;91.35
22241;BME280;11289;52.524;13.694;2022-12-31T04:19:24;100128.72;;;9.13;91.18
22241;BME280;11289;52.524;13.694;2022-12-31T04:21:49;100144.47;;;9.21;91.12
22241;BME280;11289;52.524;13.694;2022-12-31T04:24:15;100134.06;;;9.18;91.26
22241;BME280;11289;52.524;13.694;2022-12-31T04:26:40;100124.47;;;9.16;90.97
22241;BME280;11289;52.524;13.694;2022-12-31T04:29:07;100132.06;;;9.28;91.14
22241;BME280;11289;52.524;13.694;2022-12-31T04:31:33;100136.47;;;9.29;91.14
22241;BME280;11289;52.524;13.694;2022-12-31T04:33:59;100138.38;;;9.37;91.06
22241;BME280;11289;52.524;13.694;2022-12-31T04:36:24;100144.69;;;9.46;91.19
22241;BME280;11289;52.524;13.694;2022-12-31T04:38:49;100141.91;;;9.46;90.95
22241;BME280;11289;52.524;13.694;2022-12-31T04:41:17;100153.47;;;9.48;90.75
22241;BME280;11289;52.524;13.694;2022-12-31T04:43:55;100122.50;;;9.25;90.82
22241;BME280;11289;52.524;13.694;2022-12-31T04:46:23;100160.75;;;9.62;90.86
22241;BME280;11289;52.524;13.694;2022-12-31T04:48:49;100153.09;;;9.58;90.62
22241;BME280;11289;52.524;13.694;2022-12-31T04:51:15;100132.94;;;9.49;90.50
22241;BME280;11289;52.524;13.694;2022-12-31T04:53:41;100099.41;;;9.42;90.81
22241;BME280;11289;52.524;13.694;2022-12-31T04:56:07;100130.88;;;9.67;91.06
22241;BME280;11289;52.524;13.694;2022-12-31T04:58:33;100138.63;;;9.74;90.83
22241;BME280;11289;52.524;13.694;2022-12-31T05:00:59;100110.03;;;9.61;91.08
22241;BME280;11289;52.524;13.694;2022-12-31T05:03:25;100124.66;;;9.70;91.14
22241;BME280;11289;52.524;13.694;2022-12-31T05:05:52;100126.19;;;9.80;91.58
22241;BME280;11289;52.524;13.694;2022-12-31T05:08:18;100120.66;;;9.80;91.28
22241;BME280;11289;52.524;13.694;2022-12-31T05:10:45;100083.59;;;9.64;91.09
22241;BME280;11289;52.524;13.694;2022-12-31T05:13:12;100115.03;;;9.89;91.14
22241;BME280;11289;52.524;13.694;2022-12-31T05:15:38;100109.72;;;9.84;91.08
22241;BME280;11289;52.524;13.694;2022-12-31T05:18:04;100103.38;;;9.83;91.16
22241;BME280;11289;52.524;13.694;2022-12-31T05:20:29;100093.16;;;9.75;90.93
22241;BME280;11289;52.524;13.694;2022-12-31T05:22:55;100090.16;;;9.80;91.04
22241;BME280;11289;52.524;13.694;2022-12-31T05:25:20;100073.88;;;9.79;91.29
22241;BME280;11289;52.524;13.694;2022-12-31T05:27:46;100080.00;;;9.84;91.02
22241;BME280;11289;52.524;13.694;2022-12-31T05:30:11;100075.75;;;9.87;90.87
22241;BME280;11289;52.524;13.694;2022-12-31T05:32:37;100086.06;;;9.86;91.49
22241;BME280;11289;52.524;13.694;2022-12-31T05:35:03;100102.53;;;10.04;91.10
22241;BME280;11289;52.524;13.694;2022-12-31T05:37:29;100128.22;;;10.13;90.93
22241;BME280;11289;52.524;13.694;2022-12-31T05:39:55;100095.69;;;10.01;91.20
22241;BME280;11289;52.524;13.694;2022-12-31T05:42:21;100102.91;;;10.15;91.39
22241;BME280;11289;52.524;13.694;2022-12-31T05:44:47;100117.19;;;10.25;91.50
22241;BME280;11289;52.524;13.694;2022-12-31T05:47:12;100098.13;;;10.03;92.75
22241;BME280;11289;52.524;13.694;2022-12-31T05:49:38;100114.16;;;10.18;93.05
22241;BME280;11289;52.524;13.694;2022-12-31T05:52:04;100146.34;;;10.32;93.55
22241;BME280;11289;52.524;13.694;2022-12-31T05:54:29;100131.41;;;10.24;94.83
22241;BME280;11289;52.524;13.694;2022-12-31T05:56:55;100075.16;;;10.02;95.76
22241;BME280;11289;52.524;13.694;2022-12-31T05:59:20;100074.13;;;10.07;96.40
22241;BME280;11289;52.524;13.694;2022-12-31T06:01:45;100064.91;;;10.15;96.81
22241;BME280;11289;52.524;13.694;2022-12-31T06:04:11;100058.09;;;10.13;97.02
22241;BME280;11289;52.524;13.694;2022-12-31T06:06:36;100061.13;;;10.20;97.67
22241;BME280;11289;52.524;13.694;2022-12-31T06:09:02;100044.31;;;10.16;98.57
22241;BME280;11289;52.524;13.694;2022-12-31T06:11:27;100064.94;;;10.27;99.18
22241;BME280;11289;52.524;13.694;2022-12-31T06:13:53;100045.63;;;10.19;99.09
22241;BME280;11289;52.524;13.694;2022-12-31T06:16:18;100034.97;;;10.21;99.23
22241;BME280;11289;52.524;13.694;2022-12-31T06:18:46;100053.66;;;10.33;98.83
22241;BME280;11289;52.524;13.694;2022-12-31T06:21:11;100034.66;;;10.22;98.74
22241;BME280;11289;52.524;13.694;2022-12-31T06:23:39;100038.84;;;10.28;99.16
22241;BME280;11289;52.524;13.694;2022-12-31T06:26:05;100051.50;;;10.38;99.12
22241;BME280;11289;52.524;13.694;2022-12-31T06:28:31;100029.56;;;10.24;99.12
22241;BME280;11289;52.524;13.694;2022-12-31T06:31:01;100025.84;;;10.20;99.27
22241;BME280;11289;52.524;13.694;2022-12-31T06:33:27;100028.41;;;10.25;99.18
22241;BME280;11289;52.524;13.694;2022-12-31T06:35:58;100024.81;;;10.25;99.61
22241;BME280;11289;52.524;13.694;2022-12-31T06:38:24;100033.28;;;10.28;99.72
22241;BME280;11289;52.524;13.694;2022-12-31T06:40:50;100045.81;;;10.35;99.92
22241;BME280;11289;52.524;13.694;2022-12-31T06:43:15;100038.06;;;10.40;99.29
22241;BME280;11289;52.524;13.694;2022-12-31T06:45:41;100044.44;;;10.41;99.47
22241;BME280;11289;52.524;13.694;2022-12-31T06:48:06;100027.31;;;10.39;99.37
22241;BME280;11289;52.524;13.694;2022-12-31T06:50:32;100019.06;;;10.30;99.64
22241;BME280;11289;52.524;13.694;2022-12-31T06:52:58;100017.09;;;10.31;99.42
22241;BME280;11289;52.524;13.694;2022-12-31T06:55:23;100031.38;;;10.41;99.65
22241;BME280;11289;52.524;13.694;2022-12-31T06:57:49;100028.25;;;10.43;99.93
22241;BME280;11289;52.524;13.694;2022-12-31T07:00:15;100029.50;;;10.45;99.59
22241;BME280;11289;52.524;13.694;2022-12-31T07:11:34;100039.50;;;10.71;99.89
22241;BME280;11289;52.524;13.694;2022-12-31T07:13:56;100041.03;;;10.81;100.00
22241;BME280;11289;52.524;13.694;2022-12-31T07:16:50;100037.53;;;10.84;100.00
22241;BME280;11289;52.524;13.694;2022-12-31T07:21:48;100041.00;;;10.93;99.58
22241;BME280;11289;52.524;13.694;2022-12-31T07:24:14;100013.34;;;10.85;99.54
22241;BME280;11289;52.524;13.694;2022-12-31T07:29:12;100034.31;;;11.07;99.02
22241;BME280;11289;52.524;13.694;2022-12-31T07:32:19;100025.38;;;11.13;98.65
22241;BME280;11289;52.524;13.694;2022-12-31T07:38:35;100015.53;;;11.16;97.68
22241;BME280;11289;52.524;13.694;2022-12-31T07:43:37;100021.41;;;11.27;96.96
22241;BME280;11289;52.524;13.694;2022-12-31T07:46:32;100024.41;;;11.34;96.62
22241;BME280;11289;52.524;13.694;2022-12-31T07:49:00;100015.28;;;11.46;95.44
22241;BME280;11289;52.524;13.694;2022-12-31T07:51:27;100028.91;;;11.51;95.02
22241;BME280;11289;52.524;13.694;2022-12-31T07:53:53;100004.28;;;11.37;94.79
22241;BME280;11289;52.524;13.694;2022-12-31T07:56:19;100012.50;;;11.46;94.25
22241;BME280;11289;52.524;13.694;2022-12-31T08:01:50;100059.19;;;11.81;93.16
22241;BME280;11289;52.524;13.694;2022-12-31T08:07:21;100054.28;;;11.90;92.90
22241;BME280;11289;52.524;13.694;2022-12-31T08:12:36;100057.75;;;11.99;91.93
22241;BME280;11289;52.524;13.694;2022-12-31T08:15:15;100052.44;;;11.94;91.85
22241;BME280;11289;52.524;13.694;2022-12-31T08:17:41;100024.72;;;11.98;91.31
22241;BME280;11289;52.524;13.694;2022-12-31T08:20:15;100038.47;;;12.07;90.59
22241;BME280;11289;52.524;13.694;2022-12-31T08:23:09;100064.75;;;12.22;90.51
22241;BME280;11289;52.524;13.694;2022-12-31T08:31:46;100022.81;;;12.14;89.65
22241;BME280;11289;52.524;13.694;2022-12-31T08:34:20;100061.53;;;12.35;88.65
22241;BME280;11289;52.524;13.694;2022-12-31T08:37:10;100046.69;;;12.31;88.79
22241;BME280;11289;52.524;13.694;2022-12-31T08:40:27;100039.06;;;12.28;88.54
22241;BME280;11289;52.524;13.694;2022-12-31T08:45:24;100053.84;;;12.45;88.08
22241;BME280;11289;52.524;13.694;2022-12-31T08:48:11;100083.56;;;12.57;87.77
22241;BME280;11289;52.524;13.694;2022-12-31T08:50:42;100063.53;;;12.51;87.31
22241;BME280;11289;52.524;13.694;2022-12-31T08:53:07;100065.59;;;12.54;87.38
22241;BME280;11289;52.524;13.694;2022-12-31T08:55:33;100065.78;;;12.61;87.36
22241;BME280;11289;52.524;13.694;2022-12-31T08:58:17;100057.25;;;12.70;86.73
22241;BME280;11289;52.524;13.694;2022-12-31T09:00:44;100047.19;;;12.65;86.45
22241;BME280;11289;52.524;13.694;2022-12-31T09:03:33;100073.53;;;12.84;86.65
22241;BME280;11289;52.524;13.694;2022-12-31T09:09:07;100060.59;;;12.92;86.22
22241;BME280;11289;52.524;13.694;2022-12-31T09:14:18;100055.00;;;13.07;85.11
22241;BME280;11289;52.524;13.694;2022-12-31T09:19:17;100064.25;;;13.12;84.86
22241;BME280;11289;52.524;13.694;2022-12-31T09:21:43;100045.56;;;13.12;84.57
22241;BME280;11289;52.524;13.694;2022-12-31T09:24:13;100043.72;;;13.20;84.27
22241;BME280;11289;52.524;13.694;2022-12-31T09:38:18;100061.34;;;13.95;81.92
22241;BME280;11289;52.524;13.694;2022-12-31T09:54:38;100052.69;;;14.62;78.11
22241;BME280;11289;52.524;13.694;2022-12-31T10:06:13;100034.56;;;15.03;77.17
22241;BME280;11289;52.524;13.694;2022-12-31T10:12:13;100030.31;;;15.39;75.83
22241;BME280;11289;52.524;13.694;2022-12-31T10:15:00;100040.78;;;15.42;74.24
22241;BME280;11289;52.524;13.694;2022-12-31T10:23:20;100057.84;;;15.34;74.25
22241;BME280;11289;52.524;13.694;2022-12-31T10:28:58;100065.63;;;15.21;75.12
22241;BME280;11289;52.524;13.694;2022-12-31T10:34:30;100049.03;;;15.08;75.88
22241;BME280;11289;52.524;13.694;2022-12-31T10:37:07;100057.88;;;15.10;76.04
22241;BME280;11289;52.524;13.694;2022-12-31T10:56:19;100086.34;;;14.93;76.48
22241;BME280;11289;52.524;13.694;2022-12-31T10:59:24;100081.81;;;14.85;76.57
22241;BME280;11289;52.524;13.694;2022-12-31T11:04:48;100129.13;;;14.97;76.88
22241;BME280;11289;52.524;13.694;2022-12-31T11:08:10;100133.91;;;14.96;77.23
22241;BME280;11289;52.524;13.694;2022-12-31T11:10:48;100114.88;;;14.83;77.55
22241;BME280;11289;52.524;13.694;2022-12-31T11:21:36;100120.97;;;14.88;78.10
22241;BME280;11289;52.524;13.694;2022-12-31T11:27:41;100128.69;;;14.95;78.38
22241;BME280;11289;52.524;13.694;2022-12-31T11:44:56;100122.47;;;15.05;77.11
22241;BME280;11289;52.524;13.694;2022-12-31T11:56:01;100112.28;;;15.17;76.27
22241;BME280;11289;52.524;13.694;2022-12-31T11:58:29;100103.91;;;15.17;76.24
22241;BME280;11289;52.524;13.694;2022-12-31T12:01:10;100118.78;;;15.24;76.13
22241;BME280;11289;52.524;13.694;2022-12-31T12:03:38;100112.03;;;15.25;75.96
22241;BME280;11289;52.524;13.694;2022-12-31T12:06:12;100109.28;;;15.29;75.75
22241;BME280;11289;52.524;13.694;2022-12-31T12:08:38;100107.72;;;15.31;75.15
22241;BME280;11289;52.524;13.694;2022-12-31T12:11:17;100110.59;;;15.35;75.30
22241;BME280;11289;52.524;13.694;2022-12-31T12:13:43;100109.09;;;15.41;75.07
22241;BME280;11289;52.524;13.694;2022-12-31T12:16:09;100083.81;;;15.34;74.50
22241;BME280;11289;52.524;13.694;2022-12-31T12:18:45;100112.84;;;15.53;74.58
22241;BME280;11289;52.524;13.694;2022-12-31T12:21:15;100109.31;;;15.56;74.01
22241;BME280;11289;52.524;13.694;2022-12-31T12:23:59;100109.31;;;15.56;73.86
22241;BME280;11289;52.524;13.694;2022-12-31T12:26:39;100094.88;;;15.54;73.62
22241;BME280;11289;52.524;13.694;2022-12-31T12:29:32;100092.16;;;15.61;73.79
22241;BME280;11289;52.524;13.694;2022-12-31T12:32:00;100100.34;;;15.73;73.55
22241;BME280;11289;52.524;13.694;2022-12-31T12:34:29;100087.81;;;15.63;73.48
22241;BME280;11289;52.524;13.694;2022-12-31T12:36:55;100097.97;;;15.75;73.39
22241;BME280;11289;52.524;13.694;2022-12-31T12:39:27;100103.56;;;15.75;73.27
22241;BME280;11289;52.524;13.694;2022-12-31T12:42:05;100096.69;;;15.69;73.21
22241;BME280;11289;52.524;13.694;2022-12-31T12:44:31;100098.69;;;15.69;72.62
22241;BME280;11289;52.524;13.694;2022-12-31T12:47:04;100101.16;;;15.74;72.92
22241;BME280;11289;52.524;13.694;2022-12-31T12:49:38;100104.81;;;15.78;72.74
22241;BME280;11289;52.524;13.694;2022-12-31T12:55:14;100100.91;;;15.82;72.55
22241;BME280;11289;52.524;13.694;2022-12-31T13:00:38;100098.94;;;15.83;72.54
22241;BME280;11289;52.524;13.694;2022-12-31T13:11:14;100089.47;;;15.95;71.59
22241;BME280;11289;52.524;13.694;2022-12-31T13:16:43;100095.94;;;15.99;71.15
22241;BME280;11289;52.524;13.694;2022-12-31T13:19:43;100105.59;;;16.05;71.14
22241;BME280;11289;52.524;13.694;2022-12-31T13:27:37;100120.06;;;16.11;69.84
22241;BME280;11289;52.524;13.694;2022-12-31T13:30:13;100109.25;;;16.09;70.07
22241;BME280;11289;52.524;13.694;2022-12-31T13:32:43;100117.75;;;16.16;69.85
22241;BME280;11289;52.524;13.694;2022-12-31T13:35:38;100132.16;;;16.18;69.55
22241;BME280;11289;52.524;13.694;2022-12-31T13:38:14;100128.19;;;16.19;69.92
22241;BME280;11289;52.524;13.694;2022-12-31T13:40:59;100122.19;;;16.21;69.79
22241;BME280;11289;52.524;13.694;2022-12-31T13:46:36;100131.75;;;16.16;69.69
22241;BME280;11289;52.524;13.694;2022-12-31T13:49:16;100127.75;;;16.17;69.32
22241;BME280;11289;52.524;13.694;2022-12-31T13:51:44;100123.00;;;16.22;69.35
22241;BME280;11289;52.524;13.694;2022-12-31T13:54:30;100152.25;;;16.24;69.14
22241;BME280;11289;52.524;13.694;2022-12-31T13:57:04;100130.53;;;16.17;69.16
22241;BME280;11289;52.524;13.694;2022-12-31T13:59:38;100151.44;;;16.24;69.03
22241;BME280;11289;52.524;13.694;2022-12-31T14:05:00;100148.69;;;16.27;69.07
22241;BME280;11289;52.524;13.694;2022-12-31T14:07:57;100148.66;;;16.24;68.91
22241;BME280;11289;52.524;13.694;2022-12-31T14:10:40;100180.25;;;16.24;69.14
22241;BME280;11289;52.524;13.694;2022-12-31T14:13:21;100181.00;;;16.21;69.25
22241;BME280;11289;52.524;13.694;2022-12-31T14:21:27;100226.50;;;16.14;69.08
22241;BME280;11289;52.524;13.694;2022-12-31T14:26:47;100222.38;;;16.05;70.88
22241;BME280;11289;52.524;13.694;2022-12-31T14:29:42;100236.03;;;16.06;71.48
22241;BME280;11289;52.524;13.694;2022-12-31T14:35:14;100244.66;;;15.97;71.02
22241;BME280;11289;52.524;13.694;2022-12-31T14:38:00;100251.78;;;15.91;71.31
22241;BME280;11289;52.524;13.694;2022-12-31T14:40:33;100253.78;;;15.91;71.30
22241;BME280;11289;52.524;13.694;2022-12-31T14:54:41;100263.69;;;15.84;70.81
22241;BME280;11289;52.524;13.694;2022-12-31T14:57:21;100273.66;;;15.86;70.74
22241;BME280;11289;52.524;13.694;2022-12-31T14:59:57;100268.44;;;15.84;70.85
22241;BME280;11289;52.524;13.694;2022-12-31T15:02:31;100271.63;;;15.82;70.73
22241;BME280;11289;52.524;13.694;2022-12-31T15:05:25;100277.66;;;15.84;71.14
22241;BME280;11289;52.524;13.694;2022-12-31T15:08:20;100298.44;;;15.83;71.04
22241;BME280;11289;52.524;13.694;2022-12-31T15:13:38;100287.09;;;15.76;70.83
22241;BME280;11289;52.524;13.694;2022-12-31T15:16:49;100297.13;;;15.77;71.20
22241;BME280;11289;52.524;13.694;2022-12-31T15:21:58;100302.72;;;15.77;70.99
22241;BME280;11289;52.524;13.694;2022-12-31T15:24:29;100296.25;;;15.73;71.14
22241;BME280;11289;52.524;13.694;2022-12-31T15:27:00;100306.25;;;15.74;71.17
22241;BME280;11289;52.524;13.694;2022-12-31T15:29:40;100296.16;;;15.70;71.04
22241;BME280;11289;52.524;13.694;2022-12-31T15:32:16;100286.09;;;15.65;71.09
22241;BME280;11289;52.524;13.694;2022-12-31T15:34:43;100293.69;;;15.64;71.14
22241;BME280;11289;52.524;13.694;2022-12-31T15:37:35;100300.41;;;15.60;71.15
22241;BME280;11289;52.524;13.694;2022-12-31T15:42:43;100300.72;;;15.55;71.09
22241;BME280;11289;52.524;13.694;2022-12-31T15:45:15;100299.53;;;15.56;71.12
22241;BME280;11289;52.524;13.694;2022-12-31T15:47:51;100310.72;;;15.56;71.00
22241;BME280;11289;52.524;13.694;2022-12-31T15:50:20;100306.38;;;15.58;70.83
22241;BME280;11289;52.524;13.694;2022-12-31T15:52:55;100300.34;;;15.56;70.86
22241;BME280;11289;52.524;13.694;2022-12-31T15:55:43;100302.34;;;15.56;70.74
22241;BME280;11289;52.524;13.694;2022-12-31T15:58:15;100313.53;;;15.56;70.64
22241;BME280;11289;52.524;13.694;2022-12-31T16:03:29;100303.13;;;15.56;70.67
22241;BME280;11289;52.524;13.694;2022-12-31T16:06:12;100296.66;;;15.52;70.66
22241;BME280;11289;52.524;13.694;2022-12-31T16:08:39;100306.31;;;15.55;70.29
22241;BME280;11289;52.524;13.694;2022-12-31T16:11:08;100313.81;;;15.50;70.42
22241;BME280;11289;52.524;13.694;2022-12-31T16:13:36;100305.28;;;15.43;70.69
22241;BME280;11289;52.524;13.694;2022-12-31T16:16:06;100304.19;;;15.48;70.70
22241;BME280;11289;52.524;13.694;2022-12-31T16:18:39;100309.34;;;15.46;70.97
22241;BME280;11289;52.524;13.694;2022-12-31T16:21:21;100322.16;;;15.47;71.09
22241;BME280;11289;52.524;13.694;2022-12-31T16:23:57;100304.03;;;15.41;71.15
22241;BME280;11289;52.524;13.694;2022-12-31T16:26:35;100309.22;;;15.39;71.01
22241;BME280;11289;52.524;13.694;2022-12-31T16:29:03;100316.56;;;15.47;71.08
22241;BME280;11289;52.524;13.694;2022-12-31T16:31:29;100317.38;;;15.47;71.07
22241;BME280;11289;52.524;13.694;2022-12-31T16:34:06;100320.63;;;15.49;70.94
22241;BME280;11289;52.524;13.694;2022-12-31T16:36:31;100319.88;;;15.53;70.81
22241;BME280;11289;52.524;13.694;2022-12-31T16:39:33;100320.28;;;15.55;70.73
22241;BME280;11289;52.524;13.694;2022-12-31T16:44:40;100320.25;;;15.51;70.54
22241;BME280;11289;52.524;13.694;2022-12-31T16:47:07;100326.31;;;15.57;70.46
22241;BME280;11289;52.524;13.694;2022-12-31T16:49:34;100327.50;;;15.56;70.27
22241;BME280;11289;52.524;13.694;2022-12-31T16:52:21;100329.56;;;15.59;70.16
22241;BME280;11289;52.524;13.694;2022-12-31T16:54:53;100331.63;;;15.62;70.05
22241;BME280;11289;52.524;13.694;2022-12-31T16:57:23;100328.81;;;15.62;70.15
22241;BME280;11289;52.524;13.694;2022-12-31T16:59:55;100331.25;;;15.63;70.02
22241;BME280;11289;52.524;13.694;2022-12-31T17:02:36;100330.00;;;15.61;70.13
22241;BME280;11289;52.524;13.694;2022-12-31T17:05:02;100338.84;;;15.63;69.85
22241;BME280;11289;52.524;13.694;2022-12-31T17:12:32;100315.81;;;15.73;69.13
22241;BME280;11289;52.524;13.694;2022-12-31T17:15:03;100323.84;;;15.75;69.49